sensor_id;sensor_type;location;lat;lon;timestamp;P1;durP1;ratioP1;P2;durP2;ratioP2
4353;SDS011;11018;51.258;6.806;2024-03-23T00:55:12;20.58;;;5.80;;
4353;SDS011;11018;51.258;6.806;2024-03-23T00:57:39;19.13;;;5.97;;
4353;SDS011;11018;51.258;6.806;2024-03-23T01:00:04;25.60;;;6.40;;
4353;SDS011;11018;51.258;6.806;2024-03-23T01:02:31;27.60;;;7.53;;
4353;SDS011;11018;51.258;6.806;2024-03-23T01:04:57;26.27;;;6.03;;
4353;SDS011;11018;51.258;6.806;2024-03-23T01:07:23;22.15;;;6.13;;
4353;SDS011;11018;51.258;6.806;2024-03-23T01:09:49;24.98;;;6.85;;
4353;SDS011;11018;51.258;6.806;2024-03-23T01:12:14;31.67;;;6.20;;
4353;SDS011;11018;51.258;6.806;2024-03-23T01:14:40;21.58;;;5.93;;
4353;SDS011;11018;51.258;6.806;2024-03-23T01:17:05;26.10;;;6.00;;
4353;SDS011;11018;51.258;6.806;2024-03-23T01:19:31;21.10;;;5.37;;
4353;SDS011;11018;51.258;6.806;2024-03-23T01:21:56;21.45;;;6.55;;
4353;SDS011;11018;51.258;6.806;2024-03-23T01:24:22;28.27;;;5.72;;
4353;SDS011;11018;51.258;6.806;2024-03-23T01:26:47;22.65;;;6.28;;
4353;SDS011;11018;51.258;6.806;2024-03-23T01:29:13;22.73;;;4.63;;
4353;SDS011;11018;51.258;6.806;2024-03-23T01:31:39;12.50;;;3.20;;
4353;SDS011;11018;51.258;6.806;2024-03-23T01:34:04;10.45;;;3.60;;
4353;SDS011;11018;51.258;6.806;2024-03-23T01:36:30;10.90;;;3.13;;
4353;SDS011;11018;51.258;6.806;2024-03-23T01:38:55;9.13;;;2.95;;
4353;SDS011;11018;51.258;6.806;2024-03-23T01:41:21;9.07;;;3.20;;
4353;SDS011;11018;51.258;6.806;2024-03-23T01:43:48;18.90;;;4.30;;
4353;SDS011;11018;51.258;6.806;2024-03-23T01:46:14;12.77;;;3.90;;
4353;SDS011;11018;51.258;6.806;2024-03-23T01:48:40;12.52;;;4.00;;
4353;SDS011;11018;51.258;6.806;2024-03-23T01:51:05;21.40;;;4.70;;
4353;SDS011;11018;51.258;6.806;2024-03-23T01:53:31;16.33;;;3.80;;
4353;SDS011;11018;51.258;6.806;2024-03-23T01:55:57;16.20;;;3.20;;
4353;SDS011;11018;51.258;6.806;2024-03-23T01:58:22;16.50;;;3.67;;
4353;SDS011;11018;51.258;6.806;2024-03-23T02:00:48;10.07;;;3.00;;
4353;SDS011;11018;51.258;6.806;2024-03-23T02:03:23;14.50;;;3.70;;
4353;SDS011;11018;51.258;6.806;2024-03-23T02:05:53;13.93;;;3.25;;
4353;SDS011;11018;51.258;6.806;2024-03-23T02:08:20;11.73;;;3.35;;
4353;SDS011;11018;51.258;6.806;2024-03-23T02:10:47;7.72;;;2.85;;
4353;SDS011;11018;51.258;6.806;2024-03-23T02:13:14;16.30;;;3.97;;
4353;SDS011;11018;51.258;6.806;2024-03-23T02:15:40;13.13;;;3.42;;
4353;SDS011;11018;51.258;6.806;2024-03-23T02:18:09;14.37;;;3.40;;
4353;SDS011;11018;51.258;6.806;2024-03-23T02:20:35;12.63;;;3.50;;
4353;SDS011;11018;51.258;6.806;2024-03-23T02:23:01;13.35;;;3.25;;
4353;SDS011;11018;51.258;6.806;2024-03-23T02:25:27;12.00;;;3.88;;
4353;SDS011;11018;51.258;6.806;2024-03-23T02:27:52;14.43;;;4.20;;
4353;SDS011;11018;51.258;6.806;2024-03-23T02:30:19;15.30;;;3.00;;
4353;SDS011;11018;51.258;6.806;2024-03-23T02:32:45;15.90;;;3.70;;
4353;SDS011;11018;51.258;6.806;2024-03-23T02:35:11;13.35;;;4.13;;
4353;SDS011;11018;51.258;6.806;2024-03-23T02:37:36;12.10;;;3.42;;
4353;SDS011;11018;51.258;6.806;2024-03-23T02:40:02;14.98;;;3.85;;
4353;SDS011;11018;51.258;6.806;2024-03-23T02:42:28;12.93;;;3.28;;
4353;SDS011;11018;51.258;6.806;2024-03-23T02:44:53;10.75;;;3.58;;
4353;SDS011;11018;51.258;6.806;2024-03-23T02:47:19;18.73;;;5.00;;
4353;SDS011;11018;51.258;6.806;2024-03-23T02:49:45;12.03;;;3.47;;
4353;SDS011;11018;51.258;6.806;2024-03-23T02:52:10;17.50;;;4.50;;
4353;SDS011;11018;51.258;6.806;2024-03-23T02:54:36;14.07;;;3.97;;
4353;SDS011;11018;51.258;6.806;2024-03-23T02:57:01;11.30;;;3.53;;
4353;SDS011;11018;51.258;6.806;2024-03-23T02:59:27;10.90;;;3.00;;
4353;SDS011;11018;51.258;6.806;2024-03-23T03:01:53;16.40;;;3.73;;
4353;SDS011;11018;51.258;6.806;2024-03-23T03:04:18;13.40;;;3.67;;
4353;SDS011;11018;51.258;6.806;2024-03-23T03:06:47;16.90;;;3.80;;
4353;SDS011;11018;51.258;6.806;2024-03-23T03:09:13;18.10;;;3.47;;
4353;SDS011;11018;51.258;6.806;2024-03-23T03:11:38;12.80;;;3.38;;
4353;SDS011;11018;51.258;6.806;2024-03-23T03:14:04;11.00;;;3.17;;
4353;SDS011;11018;51.258;6.806;2024-03-23T03:16:32;13.75;;;3.30;;
4353;SDS011;11018;51.258;6.806;2024-03-23T03:18:57;16.13;;;3.65;;
4353;SDS011;11018;51.258;6.806;2024-03-23T03:21:23;14.00;;;2.72;;
4353;SDS011;11018;51.258;6.806;2024-03-23T03:23:48;9.88;;;2.72;;
4353;SDS011;11018;51.258;6.806;2024-03-23T03:26:15;14.38;;;3.20;;
4353;SDS011;11018;51.258;6.806;2024-03-23T03:28:41;8.65;;;2.80;;
4353;SDS011;11018;51.258;6.806;2024-03-23T03:31:08;17.38;;;3.50;;
4353;SDS011;11018;51.258;6.806;2024-03-23T03:33:33;12.03;;;3.03;;
4353;SDS011;11018;51.258;6.806;2024-03-23T03:35:59;17.87;;;3.33;;
4353;SDS011;11018;51.258;6.806;2024-03-23T03:38:24;11.63;;;2.80;;
4353;SDS011;11018;51.258;6.806;2024-03-23T03:40:50;13.57;;;2.93;;
4353;SDS011;11018;51.258;6.806;2024-03-23T03:43:15;15.27;;;3.00;;
4353;SDS011;11018;51.258;6.806;2024-03-23T03:45:41;18.05;;;3.55;;
4353;SDS011;11018;51.258;6.806;2024-03-23T03:48:07;8.50;;;2.60;;
4353;SDS011;11018;51.258;6.806;2024-03-23T03:50:32;14.40;;;3.20;;
4353;SDS011;11018;51.258;6.806;2024-03-23T03:52:59;9.32;;;2.75;;
4353;SDS011;11018;51.258;6.806;2024-03-23T03:55:24;9.55;;;3.10;;
4353;SDS011;11018;51.258;6.806;2024-03-23T03:57:50;10.95;;;2.75;;
4353;SDS011;11018;51.258;6.806;2024-03-23T04:00:16;12.75;;;2.45;;
4353;SDS011;11018;51.258;6.806;2024-03-23T04:02:41;10.75;;;2.60;;
4353;SDS011;11018;51.258;6.806;2024-03-23T04:05:07;13.48;;;3.50;;
4353;SDS011;11018;51.258;6.806;2024-03-23T04:07:33;18.05;;;3.17;;
4353;SDS011;11018;51.258;6.806;2024-03-23T04:09:59;10.55;;;2.65;;
4353;SDS011;11018;51.258;6.806;2024-03-23T04:12:24;13.85;;;3.00;;
4353;SDS011;11018;51.258;6.806;2024-03-23T04:14:50;11.77;;;2.90;;
4353;SDS011;11018;51.258;6.806;2024-03-23T04:17:15;13.10;;;3.00;;
4353;SDS011;11018;51.258;6.806;2024-03-23T04:19:41;11.27;;;2.85;;
4353;SDS011;11018;51.258;6.806;2024-03-23T04:22:07;11.05;;;2.90;;
4353;SDS011;11018;51.258;6.806;2024-03-23T04:24:33;14.18;;;3.40;;
4353;SDS011;11018;51.258;6.806;2024-03-23T04:26:58;13.40;;;2.90;;
4353;SDS011;11018;51.258;6.806;2024-03-23T04:29:24;19.77;;;3.60;;
4353;SDS011;11018;51.258;6.806;2024-03-23T04:31:51;10.65;;;2.53;;
4353;SDS011;11018;51.258;6.806;2024-03-23T04:34:17;15.40;;;2.73;;
4353;SDS011;11018;51.258;6.806;2024-03-23T04:36:43;8.00;;;2.70;;
4353;SDS011;11018;51.258;6.806;2024-03-23T04:39:08;12.52;;;3.53;;
4353;SDS011;11018;51.258;6.806;2024-03-23T04:41:35;17.05;;;3.20;;
4353;SDS011;11018;51.258;6.806;2024-03-23T04:44:00;14.20;;;4.10;;
4353;SDS011;11018;51.258;6.806;2024-03-23T04:46:26;14.80;;;4.00;;
4353;SDS011;11018;51.258;6.806;2024-03-23T04:48:52;11.37;;;3.30;;
4353;SDS011;11018;51.258;6.806;2024-03-23T04:51:21;14.52;;;3.28;;
4353;SDS011;11018;51.258;6.806;2024-03-23T04:53:50;16.92;;;3.90;;
4353;SDS011;11018;51.258;6.806;2024-03-23T04:56:16;18.58;;;4.50;;
4353;SDS011;11018;51.258;6.806;2024-03-23T04:58:42;10.77;;;3.80;;
4353;SDS011;11018;51.258;6.806;2024-03-23T05:01:08;16.83;;;4.25;;
4353;SDS011;11018;51.258;6.806;2024-03-23T05:03:35;16.40;;;4.10;;
4353;SDS011;11018;51.258;6.806;2024-03-23T05:06:01;8.90;;;3.95;;
4353;SDS011;11018;51.258;6.806;2024-03-23T05:08:26;15.70;;;4.55;;
4353;SDS011;11018;51.258;6.806;2024-03-23T05:10:52;19.77;;;4.90;;
4353;SDS011;11018;51.258;6.806;2024-03-23T05:13:18;14.60;;;4.32;;
4353;SDS011;11018;51.258;6.806;2024-03-23T05:15:43;17.15;;;4.47;;
4353;SDS011;11018;51.258;6.806;2024-03-23T05:18:09;17.83;;;4.35;;
4353;SDS011;11018;51.258;6.806;2024-03-23T05:20:35;12.67;;;4.20;;
4353;SDS011;11018;51.258;6.806;2024-03-23T05:23:01;16.30;;;4.05;;
4353;SDS011;11018;51.258;6.806;2024-03-23T05:25:26;18.30;;;4.35;;
4353;SDS011;11018;51.258;6.806;2024-03-23T05:27:52;16.67;;;4.13;;
4353;SDS011;11018;51.258;6.806;2024-03-23T05:30:17;18.20;;;4.13;;
4353;SDS011;11018;51.258;6.806;2024-03-23T05:32:43;18.55;;;4.55;;
4353;SDS011;11018;51.258;6.806;2024-03-23T05:35:09;18.30;;;4.97;;
4353;SDS011;11018;51.258;6.806;2024-03-23T05:37:35;18.85;;;3.97;;
4353;SDS011;11018;51.258;6.806;2024-03-23T05:40:02;21.02;;;5.28;;
4353;SDS011;11018;51.258;6.806;2024-03-23T05:42:31;15.77;;;4.55;;
4353;SDS011;11018;51.258;6.806;2024-03-23T05:44:57;9.88;;;3.95;;
4353;SDS011;11018;51.258;6.806;2024-03-23T05:47:22;14.70;;;4.70;;
4353;SDS011;11018;51.258;6.806;2024-03-23T05:49:48;21.55;;;4.93;;
4353;SDS011;11018;51.258;6.806;2024-03-23T05:52:13;18.38;;;4.22;;
4353;SDS011;11018;51.258;6.806;2024-03-23T05:54:39;18.63;;;5.30;;
4353;SDS011;11018;51.258;6.806;2024-03-23T05:57:05;19.58;;;4.75;;
4353;SDS011;11018;51.258;6.806;2024-03-23T05:59:33;17.83;;;4.18;;
4353;SDS011;11018;51.258;6.806;2024-03-23T06:01:59;15.75;;;4.80;;
4353;SDS011;11018;51.258;6.806;2024-03-23T06:04:24;18.50;;;5.00;;
4353;SDS011;11018;51.258;6.806;2024-03-23T06:06:51;18.30;;;5.10;;
4353;SDS011;11018;51.258;6.806;2024-03-23T06:09:17;11.27;;;4.63;;
4353;SDS011;11018;51.258;6.806;2024-03-23T06:11:44;21.77;;;5.55;;
4353;SDS011;11018;51.258;6.806;2024-03-23T06:14:09;24.90;;;5.50;;
4353;SDS011;11018;51.258;6.806;2024-03-23T06:16:35;16.15;;;6.10;;
4353;SDS011;11018;51.258;6.806;2024-03-23T06:19:00;16.38;;;5.80;;
4353;SDS011;11018;51.258;6.806;2024-03-23T06:21:28;18.58;;;5.45;;
4353;SDS011;11018;51.258;6.806;2024-03-23T06:23:54;16.87;;;6.20;;
4353;SDS011;11018;51.258;6.806;2024-03-23T06:26:20;19.77;;;6.23;;
4353;SDS011;11018;51.258;6.806;2024-03-23T06:28:46;20.48;;;6.07;;
4353;SDS011;11018;51.258;6.806;2024-03-23T06:31:12;16.42;;;5.38;;
4353;SDS011;11018;51.258;6.806;2024-03-23T06:33:38;19.85;;;5.90;;
4353;SDS011;11018;51.258;6.806;2024-03-23T06:36:05;18.75;;;5.95;;
4353;SDS011;11018;51.258;6.806;2024-03-23T06:38:31;18.98;;;6.25;;
4353;SDS011;11018;51.258;6.806;2024-03-23T06:40:57;16.42;;;6.13;;
4353;SDS011;11018;51.258;6.806;2024-03-23T06:43:22;24.83;;;6.57;;
4353;SDS011;11018;51.258;6.806;2024-03-23T06:45:52;20.73;;;6.70;;
4353;SDS011;11018;51.258;6.806;2024-03-23T06:48:21;20.40;;;7.00;;
4353;SDS011;11018;51.258;6.806;2024-03-23T06:50:47;21.20;;;6.70;;
4353;SDS011;11018;51.258;6.806;2024-03-23T06:53:13;26.20;;;8.05;;
4353;SDS011;11018;51.258;6.806;2024-03-23T06:55:39;18.10;;;7.32;;
4353;SDS011;11018;51.258;6.806;2024-03-23T06:58:05;26.75;;;8.00;;
4353;SDS011;11018;51.258;6.806;2024-03-23T07:00:31;19.60;;;8.37;;
4353;SDS011;11018;51.258;6.806;2024-03-23T07:03:00;18.85;;;7.55;;
4353;SDS011;11018;51.258;6.806;2024-03-23T07:05:26;21.77;;;7.45;;
4353;SDS011;11018;51.258;6.806;2024-03-23T07:07:51;27.10;;;7.70;;
4353;SDS011;11018;51.258;6.806;2024-03-23T07:10:17;22.80;;;7.80;;
4353;SDS011;11018;51.258;6.806;2024-03-23T07:12:43;25.75;;;7.60;;
4353;SDS011;11018;51.258;6.806;2024-03-23T07:15:08;17.98;;;7.38;;
4353;SDS011;11018;51.258;6.806;2024-03-23T07:17:35;20.85;;;7.65;;
4353;SDS011;11018;51.258;6.806;2024-03-23T07:20:03;24.37;;;8.50;;
4353;SDS011;11018;51.258;6.806;2024-03-23T07:22:32;21.45;;;8.18;;
4353;SDS011;11018;51.258;6.806;2024-03-23T07:25:00;25.85;;;8.50;;
4353;SDS011;11018;51.258;6.806;2024-03-23T07:27:26;22.80;;;7.85;;
4353;SDS011;11018;51.258;6.806;2024-03-23T07:29:51;26.10;;;7.53;;
4353;SDS011;11018;51.258;6.806;2024-03-23T07:32:17;24.45;;;7.28;;
4353;SDS011;11018;51.258;6.806;2024-03-23T07:34:42;27.00;;;7.80;;
4353;SDS011;11018;51.258;6.806;2024-03-23T07:37:09;26.00;;;7.20;;
4353;SDS011;11018;51.258;6.806;2024-03-23T07:39:35;22.65;;;7.70;;
4353;SDS011;11018;51.258;6.806;2024-03-23T07:42:00;27.10;;;7.70;;
4353;SDS011;11018;51.258;6.806;2024-03-23T07:44:26;21.13;;;6.77;;
4353;SDS011;11018;51.258;6.806;2024-03-23T07:46:52;20.50;;;6.57;;
4353;SDS011;11018;51.258;6.806;2024-03-23T07:49:17;20.80;;;7.00;;
4353;SDS011;11018;51.258;6.806;2024-03-23T07:51:43;18.67;;;7.10;;
4353;SDS011;11018;51.258;6.806;2024-03-23T07:54:10;18.92;;;6.90;;
4353;SDS011;11018;51.258;6.806;2024-03-23T07:56:35;17.92;;;6.25;;
4353;SDS011;11018;51.258;6.806;2024-03-23T07:59:01;18.73;;;6.17;;
4353;SDS011;11018;51.258;6.806;2024-03-23T08:01:28;21.77;;;6.97;;
4353;SDS011;11018;51.258;6.806;2024-03-23T08:03:54;20.05;;;6.97;;
4353;SDS011;11018;51.258;6.806;2024-03-23T08:06:20;23.58;;;6.13;;
4353;SDS011;11018;51.258;6.806;2024-03-23T08:08:48;18.50;;;6.45;;
4353;SDS011;11018;51.258;6.806;2024-03-23T08:11:16;28.80;;;6.47;;
4353;SDS011;11018;51.258;6.806;2024-03-23T08:13:42;24.87;;;6.60;;
4353;SDS011;11018;51.258;6.806;2024-03-23T08:16:10;19.80;;;6.30;;
4353;SDS011;11018;51.258;6.806;2024-03-23T08:18:35;15.25;;;6.30;;
4353;SDS011;11018;51.258;6.806;2024-03-23T08:21:05;21.75;;;5.80;;
4353;SDS011;11018;51.258;6.806;2024-03-23T08:23:31;21.35;;;6.20;;
4353;SDS011;11018;51.258;6.806;2024-03-23T08:26:08;23.15;;;6.10;;
4353;SDS011;11018;51.258;6.806;2024-03-23T08:28:38;18.02;;;5.18;;
4353;SDS011;11018;51.258;6.806;2024-03-23T08:31:04;19.42;;;5.50;;
4353;SDS011;11018;51.258;6.806;2024-03-23T08:33:32;22.00;;;5.65;;
4353;SDS011;11018;51.258;6.806;2024-03-23T08:36:02;15.32;;;4.82;;
4353;SDS011;11018;51.258;6.806;2024-03-23T08:38:28;12.73;;;4.28;;
4353;SDS011;11018;51.258;6.806;2024-03-23T08:40:58;11.83;;;4.27;;
4353;SDS011;11018;51.258;6.806;2024-03-23T08:43:28;10.43;;;4.05;;
4353;SDS011;11018;51.258;6.806;2024-03-23T08:46:02;20.00;;;5.07;;
4353;SDS011;11018;51.258;6.806;2024-03-23T08:48:31;12.97;;;4.57;;
4353;SDS011;11018;51.258;6.806;2024-03-23T08:51:02;13.02;;;4.50;;
4353;SDS011;11018;51.258;6.806;2024-03-23T08:53:28;18.13;;;4.80;;
4353;SDS011;11018;51.258;6.806;2024-03-23T08:55:55;15.35;;;5.10;;
4353;SDS011;11018;51.258;6.806;2024-03-23T08:58:22;11.85;;;3.53;;
4353;SDS011;11018;51.258;6.806;2024-03-23T09:00:49;10.10;;;2.88;;
4353;SDS011;11018;51.258;6.806;2024-03-23T09:03:15;6.35;;;2.20;;
4353;SDS011;11018;51.258;6.806;2024-03-23T09:05:40;8.02;;;2.50;;
4353;SDS011;11018;51.258;6.806;2024-03-23T09:08:07;10.65;;;2.90;;
4353;SDS011;11018;51.258;6.806;2024-03-23T09:10:37;8.13;;;2.95;;
4353;SDS011;11018;51.258;6.806;2024-03-23T09:13:04;5.47;;;2.30;;
4353;SDS011;11018;51.258;6.806;2024-03-23T09:15:29;9.23;;;3.00;;
4353;SDS011;11018;51.258;6.806;2024-03-23T09:17:56;11.10;;;3.90;;
4353;SDS011;11018;51.258;6.806;2024-03-23T09:20:23;13.30;;;3.20;;
4353;SDS011;11018;51.258;6.806;2024-03-23T09:22:49;16.60;;;4.73;;
4353;SDS011;11018;51.258;6.806;2024-03-23T09:25:14;10.57;;;3.53;;
4353;SDS011;11018;51.258;6.806;2024-03-23T09:27:40;15.57;;;3.57;;
4353;SDS011;11018;51.258;6.806;2024-03-23T09:30:05;10.18;;;3.70;;
4353;SDS011;11018;51.258;6.806;2024-03-23T09:32:31;12.52;;;3.92;;
4353;SDS011;11018;51.258;6.806;2024-03-23T09:34:57;14.97;;;3.70;;
4353;SDS011;11018;51.258;6.806;2024-03-23T09:37:22;13.90;;;4.40;;
4353;SDS011;11018;51.258;6.806;2024-03-23T09:39:48;19.50;;;5.00;;
4353;SDS011;11018;51.258;6.806;2024-03-23T09:42:13;13.20;;;4.20;;
4353;SDS011;11018;51.258;6.806;2024-03-23T09:44:39;19.10;;;4.68;;
4353;SDS011;11018;51.258;6.806;2024-03-23T09:47:05;10.87;;;4.03;;
4353;SDS011;11018;51.258;6.806;2024-03-23T09:49:32;7.60;;;3.80;;
4353;SDS011;11018;51.258;6.806;2024-03-23T09:52:01;10.35;;;4.40;;
4353;SDS011;11018;51.258;6.806;2024-03-23T09:54:27;13.48;;;4.55;;
4353;SDS011;11018;51.258;6.806;2024-03-23T09:56:53;10.70;;;4.30;;
4353;SDS011;11018;51.258;6.806;2024-03-23T09:59:18;13.40;;;4.43;;
4353;SDS011;11018;51.258;6.806;2024-03-23T10:01:44;13.27;;;5.50;;
4353;SDS011;11018;51.258;6.806;2024-03-23T10:04:09;13.30;;;3.80;;
4353;SDS011;11018;51.258;6.806;2024-03-23T10:06:35;9.90;;;4.20;;
4353;SDS011;11018;51.258;6.806;2024-03-23T10:09:01;10.20;;;4.30;;
4353;SDS011;11018;51.258;6.806;2024-03-23T10:11:41;8.45;;;3.60;;
4353;SDS011;11018;51.258;6.806;2024-03-23T10:14:09;11.15;;;3.30;;
4353;SDS011;11018;51.258;6.806;2024-03-23T10:16:34;10.20;;;2.65;;
4353;SDS011;11018;51.258;6.806;2024-03-23T10:19:00;14.93;;;3.10;;
4353;SDS011;11018;51.258;6.806;2024-03-23T10:21:25;14.40;;;3.00;;
4353;SDS011;11018;51.258;6.806;2024-03-23T10:23:51;10.70;;;3.70;;
4353;SDS011;11018;51.258;6.806;2024-03-23T10:26:23;10.27;;;2.87;;
4353;SDS011;11018;51.258;6.806;2024-03-23T10:28:57;11.02;;;3.50;;
4353;SDS011;11018;51.258;6.806;2024-03-23T10:31:28;9.10;;;2.50;;
4353;SDS011;11018;51.258;6.806;2024-03-23T10:33:54;11.65;;;2.25;;
4353;SDS011;11018;51.258;6.806;2024-03-23T10:36:20;13.07;;;2.70;;
4353;SDS011;11018;51.258;6.806;2024-03-23T10:38:47;8.90;;;2.90;;
4353;SDS011;11018;51.258;6.806;2024-03-23T10:41:14;11.25;;;2.30;;
4353;SDS011;11018;51.258;6.806;2024-03-23T10:43:40;3.08;;;1.90;;
4353;SDS011;11018;51.258;6.806;2024-03-23T10:46:05;6.40;;;2.50;;
4353;SDS011;11018;51.258;6.806;2024-03-23T10:48:32;5.50;;;1.30;;
4353;SDS011;11018;51.258;6.806;2024-03-23T10:50:58;10.02;;;1.70;;
4353;SDS011;11018;51.258;6.806;2024-03-23T10:53:27;2.72;;;1.20;;
4353;SDS011;11018;51.258;6.806;2024-03-23T10:55:54;5.53;;;1.95;;
4353;SDS011;11018;51.258;6.806;2024-03-23T10:58:29;3.83;;;1.75;;
4353;SDS011;11018;51.258;6.806;2024-03-23T11:01:03;2.83;;;1.65;;
4353;SDS011;11018;51.258;6.806;2024-03-23T11:03:29;3.67;;;1.95;;
4353;SDS011;11018;51.258;6.806;2024-03-23T11:05:59;6.95;;;2.28;;
4353;SDS011;11018;51.258;6.806;2024-03-23T11:08:32;5.47;;;1.50;;
4353;SDS011;11018;51.258;6.806;2024-03-23T11:11:16;2.85;;;1.40;;
4353;SDS011;11018;51.258;6.806;2024-03-23T11:13:50;4.57;;;2.17;;
4353;SDS011;11018;51.258;6.806;2024-03-23T11:16:16;8.95;;;3.30;;
4353;SDS011;11018;51.258;6.806;2024-03-23T11:22:01;4.82;;;2.53;;
4353;SDS011;11018;51.258;6.806;2024-03-23T11:24:27;7.90;;;3.97;;
4353;SDS011;11018;51.258;6.806;2024-03-23T11:26:52;3.00;;;1.60;;
4353;SDS011;11018;51.258;6.806;2024-03-23T11:29:19;2.38;;;1.63;;
4353;SDS011;11018;51.258;6.806;2024-03-23T11:31:48;6.70;;;2.13;;
4353;SDS011;11018;51.258;6.806;2024-03-23T11:34:17;6.72;;;2.10;;
4353;SDS011;11018;51.258;6.806;2024-03-23T11:36:44;6.38;;;1.70;;
4353;SDS011;11018;51.258;6.806;2024-03-23T11:39:14;5.30;;;2.00;;
4353;SDS011;11018;51.258;6.806;2024-03-23T11:41:48;8.00;;;2.17;;
4353;SDS011;11018;51.258;6.806;2024-03-23T11:44:17;3.30;;;1.80;;
4353;SDS011;11018;51.258;6.806;2024-03-23T11:46:44;4.70;;;2.17;;
4353;SDS011;11018;51.258;6.806;2024-03-23T11:49:22;6.35;;;2.30;;
4353;SDS011;11018;51.258;6.806;2024-03-23T11:51:48;7.18;;;2.40;;
4353;SDS011;11018;51.258;6.806;2024-03-23T11:54:15;7.40;;;1.92;;
4353;SDS011;11018;51.258;6.806;2024-03-23T11:56:40;6.22;;;1.80;;
4353;SDS011;11018;51.258;6.806;2024-03-23T11:59:37;5.93;;;1.80;;
4353;SDS011;11018;51.258;6.806;2024-03-23T12:02:08;4.97;;;2.13;;
4353;SDS011;11018;51.258;6.806;2024-03-23T12:04:36;5.05;;;1.27;;
4353;SDS011;11018;51.258;6.806;2024-03-23T12:07:11;4.50;;;1.55;;
4353;SDS011;11018;51.258;6.806;2024-03-23T12:09:45;2.33;;;1.40;;
4353;SDS011;11018;51.258;6.806;2024-03-23T12:12:17;3.50;;;1.50;;
4353;SDS011;11018;51.258;6.806;2024-03-23T12:17:30;2.88;;;1.50;;
4353;SDS011;11018;51.258;6.806;2024-03-23T12:19:55;4.65;;;1.50;;
4353;SDS011;11018;51.258;6.806;2024-03-23T12:22:21;3.90;;;1.40;;
4353;SDS011;11018;51.258;6.806;2024-03-23T12:24:47;3.85;;;1.25;;
4353;SDS011;11018;51.258;6.806;2024-03-23T12:27:13;4.93;;;1.20;;
4353;SDS011;11018;51.258;6.806;2024-03-23T12:29:39;2.53;;;1.63;;
4353;SDS011;11018;51.258;6.806;2024-03-23T12:32:06;7.40;;;1.52;;
4353;SDS011;11018;51.258;6.806;2024-03-23T12:34:32;7.47;;;2.95;;
4353;SDS011;11018;51.258;6.806;2024-03-23T12:36:58;7.68;;;2.30;;
4353;SDS011;11018;51.258;6.806;2024-03-23T12:39:24;5.27;;;2.17;;
4353;SDS011;11018;51.258;6.806;2024-03-23T12:41:49;5.43;;;2.17;;
4353;SDS011;11018;51.258;6.806;2024-03-23T12:44:16;6.95;;;2.28;;
4353;SDS011;11018;51.258;6.806;2024-03-23T12:46:42;4.20;;;1.80;;
4353;SDS011;11018;51.258;6.806;2024-03-23T12:49:08;6.85;;;1.50;;
4353;SDS011;11018;51.258;6.806;2024-03-23T12:51:33;6.40;;;2.05;;
4353;SDS011;11018;51.258;6.806;2024-03-23T12:53:59;3.60;;;1.60;;
4353;SDS011;11018;51.258;6.806;2024-03-23T12:56:25;4.38;;;1.67;;
4353;SDS011;11018;51.258;6.806;2024-03-23T12:58:50;8.50;;;1.80;;
4353;SDS011;11018;51.258;6.806;2024-03-23T13:01:19;6.95;;;1.95;;
4353;SDS011;11018;51.258;6.806;2024-03-23T13:03:48;3.45;;;1.20;;
4353;SDS011;11018;51.258;6.806;2024-03-23T13:06:14;4.00;;;1.80;;
4353;SDS011;11018;51.258;6.806;2024-03-23T13:08:40;3.30;;;1.90;;
4353;SDS011;11018;51.258;6.806;2024-03-23T13:11:05;4.90;;;1.70;;
4353;SDS011;11018;51.258;6.806;2024-03-23T13:13:33;6.90;;;2.20;;
4353;SDS011;11018;51.258;6.806;2024-03-23T13:15:59;5.97;;;1.60;;
4353;SDS011;11018;51.258;6.806;2024-03-23T13:18:25;2.95;;;1.00;;
4353;SDS011;11018;51.258;6.806;2024-03-23T13:20:51;3.47;;;0.90;;
4353;SDS011;11018;51.258;6.806;2024-03-23T13:23:16;2.00;;;0.90;;
4353;SDS011;11018;51.258;6.806;2024-03-23T13:25:49;3.67;;;1.00;;
4353;SDS011;11018;51.258;6.806;2024-03-23T13:28:15;3.67;;;1.10;;
4353;SDS011;11018;51.258;6.806;2024-03-23T13:30:49;2.23;;;0.90;;
4353;SDS011;11018;51.258;6.806;2024-03-23T13:33:15;3.80;;;1.30;;
4353;SDS011;11018;51.258;6.806;2024-03-23T13:35:48;4.83;;;1.40;;
4353;SDS011;11018;51.258;6.806;2024-03-23T13:38:17;2.92;;;1.10;;
4353;SDS011;11018;51.258;6.806;2024-03-23T13:40:56;6.20;;;1.10;;
4353;SDS011;11018;51.258;6.806;2024-03-23T13:43:26;2.83;;;1.00;;
4353;SDS011;11018;51.258;6.806;2024-03-23T13:45:53;6.00;;;1.20;;
4353;SDS011;11018;51.258;6.806;2024-03-23T13:48:20;4.18;;;1.60;;
4353;SDS011;11018;51.258;6.806;2024-03-23T13:50:56;2.67;;;1.00;;
4353;SDS011;11018;51.258;6.806;2024-03-23T13:53:31;2.15;;;0.90;;
4353;SDS011;11018;51.258;6.806;2024-03-23T13:55:59;5.55;;;1.50;;
4353;SDS011;11018;51.258;6.806;2024-03-23T13:58:25;4.10;;;1.20;;
4353;SDS011;11018;51.258;6.806;2024-03-23T14:00:52;3.27;;;1.33;;
4353;SDS011;11018;51.258;6.806;2024-03-23T14:03:19;6.65;;;1.48;;
4353;SDS011;11018;51.258;6.806;2024-03-23T14:05:44;5.90;;;1.30;;
4353;SDS011;11018;51.258;6.806;2024-03-23T14:08:12;3.08;;;1.40;;
4353;SDS011;11018;51.258;6.806;2024-03-23T14:10:40;3.88;;;1.60;;
4353;SDS011;11018;51.258;6.806;2024-03-23T14:13:06;5.00;;;1.60;;
4353;SDS011;11018;51.258;6.806;2024-03-23T14:15:32;4.85;;;1.60;;
4353;SDS011;11018;51.258;6.806;2024-03-23T14:17:57;4.85;;;1.67;;
4353;SDS011;11018;51.258;6.806;2024-03-23T14:20:23;8.95;;;1.92;;
4353;SDS011;11018;51.258;6.806;2024-03-23T14:22:49;5.13;;;1.92;;
4353;SDS011;11018;51.258;6.806;2024-03-23T14:25:15;6.27;;;1.50;;
4353;SDS011;11018;51.258;6.806;2024-03-23T14:27:41;7.28;;;1.92;;
4353;SDS011;11018;51.258;6.806;2024-03-23T14:30:09;5.00;;;1.67;;
4353;SDS011;11018;51.258;6.806;2024-03-23T14:32:34;3.22;;;1.70;;
4353;SDS011;11018;51.258;6.806;2024-03-23T14:35:01;6.90;;;1.70;;
4353;SDS011;11018;51.258;6.806;2024-03-23T14:37:26;4.37;;;1.50;;
4353;SDS011;11018;51.258;6.806;2024-03-23T14:39:52;3.33;;;1.40;;
4353;SDS011;11018;51.258;6.806;2024-03-23T14:42:18;2.97;;;1.00;;
4353;SDS011;11018;51.258;6.806;2024-03-23T14:44:43;3.00;;;0.90;;
4353;SDS011;11018;51.258;6.806;2024-03-23T14:47:09;5.60;;;1.30;;
4353;SDS011;11018;51.258;6.806;2024-03-23T14:49:34;4.17;;;1.27;;
4353;SDS011;11018;51.258;6.806;2024-03-23T14:52:00;1.85;;;1.10;;
4353;SDS011;11018;51.258;6.806;2024-03-23T14:54:26;4.63;;;1.40;;
4353;SDS011;11018;51.258;6.806;2024-03-23T14:56:52;2.57;;;1.20;;
4353;SDS011;11018;51.258;6.806;2024-03-23T14:59:18;3.58;;;1.40;;
4353;SDS011;11018;51.258;6.806;2024-03-23T15:01:44;4.72;;;1.50;;
4353;SDS011;11018;51.258;6.806;2024-03-23T15:04:10;4.05;;;1.30;;
4353;SDS011;11018;51.258;6.806;2024-03-23T15:06:36;4.68;;;1.60;;
4353;SDS011;11018;51.258;6.806;2024-03-23T15:09:01;2.80;;;1.70;;
4353;SDS011;11018;51.258;6.806;2024-03-23T15:11:31;5.00;;;1.70;;
4353;SDS011;11018;51.258;6.806;2024-03-23T15:13:57;3.20;;;1.50;;
4353;SDS011;11018;51.258;6.806;2024-03-23T15:16:22;4.00;;;1.30;;
4353;SDS011;11018;51.258;6.806;2024-03-23T15:18:48;4.20;;;1.50;;
4353;SDS011;11018;51.258;6.806;2024-03-23T15:21:14;5.90;;;2.05;;
4353;SDS011;11018;51.258;6.806;2024-03-23T15:23:44;6.05;;;1.50;;
4353;SDS011;11018;51.258;6.806;2024-03-23T15:26:10;4.40;;;1.43;;
4353;SDS011;11018;51.258;6.806;2024-03-23T15:28:35;5.30;;;1.43;;
4353;SDS011;11018;51.258;6.806;2024-03-23T15:31:19;3.70;;;1.50;;
4353;SDS011;11018;51.258;6.806;2024-03-23T15:33:45;4.03;;;1.50;;
4353;SDS011;11018;51.258;6.806;2024-03-23T15:36:11;3.00;;;1.40;;
4353;SDS011;11018;51.258;6.806;2024-03-23T15:38:37;2.80;;;1.60;;
4353;SDS011;11018;51.258;6.806;2024-03-23T15:41:03;3.20;;;1.30;;
4353;SDS011;11018;51.258;6.806;2024-03-23T15:43:29;2.90;;;1.20;;
4353;SDS011;11018;51.258;6.806;2024-03-23T15:45:56;4.90;;;1.70;;
4353;SDS011;11018;51.258;6.806;2024-03-23T15:48:29;2.70;;;1.55;;
4353;SDS011;11018;51.258;6.806;2024-03-23T15:53:23;5.35;;;2.00;;